AUL765 ULLI-ULAA
Flight info
| Callsign | AUL765 |
|---|---|
| Flight time | 1h 18m |
| Altitude | 31000 |
| Route | RELNI1C RELNI T693 DISUP DCT MAKOG MAKOG3M |
| Aircraft | B737/M-SDE2E3FGHIRWXY/LB1 |
Departure
| Time | 2026-04-21 11:27 |
|---|---|
| Airport | Pulkovo Airport (ULLI) |
Arrival
| Time | 2026-04-21 12:45 |
|---|---|
| Airport | Talagi Airport (ULAA) |
| Time | Latitude | Longitude | Altitude | Speed | Heading |
|---|---|---|---|---|---|
| 2026-04-21 10:58 | 59.80079 | 30.26464 | 87 ft | 0 kts | 287° |
| 2026-04-21 11:17 | 59.80085 | 30.26420 | 87 ft | 5 kts | 287° |
| 2026-04-21 11:18 | 59.80090 | 30.26388 | 87 ft | 0 kts | 287° |
| 2026-04-21 11:18 | 59.80090 | 30.26387 | 87 ft | 1 kts | 287° |
| 2026-04-21 11:18 | 59.80095 | 30.26356 | 87 ft | 4 kts | 280° |
| 2026-04-21 11:19 | 59.80072 | 30.26306 | 87 ft | 7 kts | 206° |
| 2026-04-21 11:19 | 59.80014 | 30.26272 | 87 ft | 11 kts | 196° |
| 2026-04-21 11:19 | 59.79937 | 30.26226 | 87 ft | 12 kts | 196° |
| 2026-04-21 11:19 | 59.79861 | 30.26181 | 87 ft | 11 kts | 196° |
| 2026-04-21 11:20 | 59.79787 | 30.26138 | 87 ft | 11 kts | 196° |
| 2026-04-21 11:20 | 59.79717 | 30.26097 | 87 ft | 10 kts | 196° |
| 2026-04-21 11:20 | 59.79651 | 30.26036 | 87 ft | 11 kts | 206° |
| 2026-04-21 11:20 | 59.79570 | 30.25974 | 87 ft | 12 kts | 231° |
| 2026-04-21 11:21 | 59.79582 | 30.25820 | 87 ft | 13 kts | 286° |
| 2026-04-21 11:21 | 59.79615 | 30.25599 | 87 ft | 18 kts | 286° |
| 2026-04-21 11:21 | 59.79649 | 30.25360 | 87 ft | 18 kts | 286° |
| 2026-04-21 11:21 | 59.79683 | 30.25133 | 87 ft | 17 kts | 287° |
| 2026-04-21 11:22 | 59.79722 | 30.24868 | 87 ft | 24 kts | 287° |
| 2026-04-21 11:22 | 59.79762 | 30.24600 | 87 ft | 18 kts | 286° |
| 2026-04-21 11:22 | 59.79798 | 30.24363 | 87 ft | 17 kts | 286° |
| 2026-04-21 11:22 | 59.79836 | 30.24105 | 87 ft | 23 kts | 287° |
| 2026-04-21 11:23 | 59.79881 | 30.23800 | 87 ft | 22 kts | 286° |
| 2026-04-21 11:23 | 59.79925 | 30.23509 | 87 ft | 22 kts | 286° |
| 2026-04-21 11:23 | 59.79967 | 30.23229 | 87 ft | 21 kts | 287° |
| 2026-04-21 11:23 | 59.80006 | 30.22963 | 87 ft | 20 kts | 286° |
| 2026-04-21 11:24 | 59.80042 | 30.22708 | 87 ft | 19 kts | 286° |
| 2026-04-21 11:24 | 59.80078 | 30.22466 | 87 ft | 18 kts | 287° |
| 2026-04-21 11:24 | 59.80114 | 30.22239 | 87 ft | 17 kts | 288° |
| 2026-04-21 11:24 | 59.80092 | 30.22040 | 87 ft | 10 kts | 225° |
| 2026-04-21 11:25 | 59.80046 | 30.21947 | 87 ft | 9 kts | 225° |
| 2026-04-21 11:25 | 59.79989 | 30.21925 | 87 ft | 9 kts | 147° |
| 2026-04-21 11:25 | 59.79969 | 30.22006 | 87 ft | 0 kts | 105° |
| 2026-04-21 11:26 | 59.79956 | 30.22100 | 87 ft | 19 kts | 105° |
| 2026-04-21 11:26 | 59.79857 | 30.22769 | 87 ft | 84 kts | 106° |
| 2026-04-21 11:26 | 59.79635 | 30.24270 | 88 ft | 143 kts | 106° |
| 2026-04-21 11:26 | 59.79319 | 30.26382 | 391 ft | 167 kts | 107° |
| 2026-04-21 11:27 | 59.78942 | 30.28561 | 1165 ft | 165 kts | 110° |
| 2026-04-21 11:27 | 59.78549 | 30.30656 | 1937 ft | 160 kts | 107° |
| 2026-04-21 11:27 | 59.78186 | 30.32800 | 2393 ft | 174 kts | 106° |
| 2026-04-21 11:27 | 59.77771 | 30.35226 | 2728 ft | 195 kts | 107° |
| 2026-04-21 11:28 | 59.77323 | 30.37885 | 3119 ft | 211 kts | 105° |
| 2026-04-21 11:28 | 59.76870 | 30.40761 | 3501 ft | 224 kts | 103° |
| 2026-04-21 11:28 | 59.76434 | 30.43861 | 3874 ft | 245 kts | 100° |
| 2026-04-21 11:28 | 59.76034 | 30.47318 | 4317 ft | 267 kts | 100° |
| 2026-04-21 11:29 | 59.75593 | 30.50971 | 5062 ft | 278 kts | 101° |
| 2026-04-21 11:29 | 59.75247 | 30.54838 | 5621 ft | 294 kts | 90° |
| 2026-04-21 11:29 | 59.75552 | 30.58829 | 6417 ft | 292 kts | 68° |
| 2026-04-21 11:29 | 59.76546 | 30.62269 | 7484 ft | 285 kts | 48° |
| 2026-04-21 11:30 | 59.77913 | 30.64951 | 8786 ft | 269 kts | 43° |
| 2026-04-21 11:30 | 59.79207 | 30.67533 | 9968 ft | 260 kts | 44° |
| 2026-04-21 11:30 | 59.80463 | 30.70130 | 10838 ft | 262 kts | 45° |
| 2026-04-21 11:30 | 59.81722 | 30.72843 | 11421 ft | 275 kts | 46° |
| 2026-04-21 11:31 | 59.83044 | 30.75783 | 11790 ft | 294 kts | 46° |
| 2026-04-21 11:31 | 59.84434 | 30.78948 | 12102 ft | 314 kts | 47° |
| 2026-04-21 11:31 | 59.85879 | 30.82286 | 12528 ft | 329 kts | 47° |
| 2026-04-21 11:31 | 59.87377 | 30.85781 | 13237 ft | 334 kts | 47° |
| 2026-04-21 11:32 | 59.88886 | 30.89324 | 14051 ft | 337 kts | 48° |
| 2026-04-21 11:32 | 59.90410 | 30.92918 | 14721 ft | 343 kts | 48° |
| 2026-04-21 11:32 | 59.91952 | 30.96567 | 15056 ft | 345 kts | 48° |
| 2026-04-21 11:32 | 59.93514 | 31.00274 | 15153 ft | 344 kts | 48° |
| 2026-04-21 11:33 | 59.95061 | 31.03829 | 15179 ft | 343 kts | 46° |
| 2026-04-21 11:33 | 59.96663 | 31.07442 | 15184 ft | 344 kts | 47° |
| 2026-04-21 11:33 | 59.98222 | 31.11064 | 15187 ft | 344 kts | 47° |
| 2026-04-21 11:33 | 59.99745 | 31.14664 | 15187 ft | 344 kts | 48° |
| 2026-04-21 11:34 | 60.01296 | 31.18367 | 15524 ft | 350 kts | 48° |
| 2026-04-21 11:34 | 60.02851 | 31.22098 | 16465 ft | 349 kts | 48° |
| 2026-04-21 11:34 | 60.04403 | 31.25834 | 17334 ft | 350 kts | 48° |
| 2026-04-21 11:34 | 60.05965 | 31.29604 | 18120 ft | 353 kts | 48° |
| 2026-04-21 11:35 | 60.07539 | 31.33409 | 18883 ft | 356 kts | 49° |
| 2026-04-21 11:35 | 60.09130 | 31.37257 | 19628 ft | 358 kts | 49° |
| 2026-04-21 11:35 | 60.10723 | 31.41114 | 20346 ft | 361 kts | 49° |
| 2026-04-21 11:35 | 60.12336 | 31.45011 | 21037 ft | 363 kts | 48° |
| 2026-04-21 11:36 | 60.14140 | 31.48569 | 21690 ft | 365 kts | 38° |
| 2026-04-21 11:36 | 60.16251 | 31.51396 | 22321 ft | 367 kts | 29° |
| 2026-04-21 11:36 | 60.18531 | 31.53767 | 22934 ft | 370 kts | 27° |
| 2026-04-21 11:36 | 60.20869 | 31.55975 | 23527 ft | 373 kts | 25° |
| 2026-04-21 11:37 | 60.23226 | 31.58049 | 24085 ft | 376 kts | 25° |
| 2026-04-21 11:37 | 60.25666 | 31.60172 | 24625 ft | 378 kts | 25° |
| 2026-04-21 11:37 | 60.28062 | 31.62254 | 25132 ft | 381 kts | 25° |
| 2026-04-21 11:37 | 60.30505 | 31.64374 | 25627 ft | 384 kts | 24° |
| 2026-04-21 11:38 | 60.32970 | 31.66514 | 26106 ft | 386 kts | 24° |
| 2026-04-21 11:38 | 60.35445 | 31.68664 | 26567 ft | 389 kts | 24° |
| 2026-04-21 11:38 | 60.37936 | 31.70830 | 27008 ft | 391 kts | 25° |
| 2026-04-21 11:38 | 60.40440 | 31.73010 | 27503 ft | 391 kts | 25° |
| 2026-04-21 11:39 | 60.42945 | 31.75131 | 28123 ft | 388 kts | 24° |
| 2026-04-21 11:39 | 60.45432 | 31.77236 | 28639 ft | 388 kts | 24° |
| 2026-04-21 11:39 | 60.47926 | 31.79384 | 29067 ft | 390 kts | 24° |
| 2026-04-21 11:39 | 60.50418 | 31.81554 | 29542 ft | 390 kts | 24° |
| 2026-04-21 11:40 | 60.52911 | 31.83738 | 30005 ft | 390 kts | 24° |
| 2026-04-21 11:40 | 60.55405 | 31.85931 | 30460 ft | 390 kts | 24° |
| 2026-04-21 11:40 | 60.57895 | 31.88127 | 30904 ft | 390 kts | 24° |
| 2026-04-21 11:40 | 60.60403 | 31.90341 | 31122 ft | 394 kts | 24° |
| 2026-04-21 11:41 | 60.64590 | 31.94044 | 31171 ft | 395 kts | 24° |
| 2026-04-21 11:41 | 60.70583 | 31.98466 | 31179 ft | 393 kts | 13° |
| 2026-04-21 11:42 | 60.76015 | 31.99852 | 31179 ft | 394 kts | 6° |
| 2026-04-21 11:42 | 60.81473 | 32.00350 | 31178 ft | 395 kts | 5° |
| 2026-04-21 11:43 | 60.86968 | 32.00770 | 31178 ft | 395 kts | 5° |
| 2026-04-21 11:43 | 60.92449 | 32.01195 | 31179 ft | 394 kts | 5° |
| 2026-04-21 11:44 | 60.96877 | 32.03237 | 31180 ft | 390 kts | 27° |
| 2026-04-21 11:44 | 60.99148 | 32.06260 | 31182 ft | 390 kts | 38° |
| 2026-04-21 11:44 | 61.01215 | 32.09902 | 31179 ft | 391 kts | 41° |
| 2026-04-21 11:45 | 61.05096 | 32.17355 | 31179 ft | 391 kts | 42° |
| 2026-04-21 11:45 | 61.09038 | 32.25117 | 31178 ft | 391 kts | 42° |
| 2026-04-21 11:46 | 61.12941 | 32.32861 | 31178 ft | 391 kts | 42° |
| 2026-04-21 11:46 | 61.16865 | 32.40690 | 31176 ft | 391 kts | 43° |
| 2026-04-21 11:47 | 61.20780 | 32.48540 | 31175 ft | 391 kts | 43° |
| 2026-04-21 11:47 | 61.24736 | 32.56309 | 31172 ft | 391 kts | 42° |
| 2026-04-21 11:48 | 61.28701 | 32.64094 | 31168 ft | 392 kts | 42° |
| 2026-04-21 11:48 | 61.32642 | 32.71933 | 31166 ft | 392 kts | 43° |
| 2026-04-21 11:49 | 61.36571 | 32.79811 | 31164 ft | 392 kts | 43° |
| 2026-04-21 11:49 | 61.40475 | 32.87684 | 31161 ft | 392 kts | 43° |
| 2026-04-21 11:50 | 61.44392 | 32.95623 | 31160 ft | 392 kts | 43° |
| 2026-04-21 11:50 | 61.48300 | 33.03576 | 31159 ft | 392 kts | 43° |
| 2026-04-21 11:51 | 61.52210 | 33.11564 | 31157 ft | 393 kts | 43° |
| 2026-04-21 11:51 | 61.56122 | 33.19588 | 31156 ft | 393 kts | 43° |
| 2026-04-21 11:52 | 61.60029 | 33.27631 | 31155 ft | 393 kts | 43° |
| 2026-04-21 11:52 | 61.63935 | 33.35702 | 31154 ft | 393 kts | 43° |
| 2026-04-21 11:53 | 61.67836 | 33.43795 | 31154 ft | 393 kts | 43° |
| 2026-04-21 11:53 | 61.71729 | 33.51902 | 31153 ft | 394 kts | 43° |
| 2026-04-21 11:54 | 61.75594 | 33.59979 | 31153 ft | 394 kts | 43° |
| 2026-04-21 11:54 | 61.79480 | 33.68130 | 31153 ft | 394 kts | 43° |
| 2026-04-21 11:55 | 61.83372 | 33.76328 | 31153 ft | 394 kts | 43° |
| 2026-04-21 11:55 | 61.87252 | 33.84529 | 31152 ft | 394 kts | 44° |
| 2026-04-21 11:56 | 61.91130 | 33.92757 | 31131 ft | 394 kts | 43° |
| 2026-04-21 11:56 | 61.94976 | 34.00949 | 31123 ft | 394 kts | 43° |
| 2026-04-21 11:57 | 61.98843 | 34.09216 | 31127 ft | 394 kts | 44° |
| 2026-04-21 11:57 | 62.02707 | 34.17510 | 31126 ft | 394 kts | 44° |
| 2026-04-21 11:58 | 62.06565 | 34.25821 | 31124 ft | 394 kts | 44° |
| 2026-04-21 11:58 | 62.10390 | 34.34094 | 31122 ft | 394 kts | 44° |
| 2026-04-21 11:59 | 62.14237 | 34.42446 | 31121 ft | 394 kts | 44° |
| 2026-04-21 11:59 | 62.18083 | 34.50827 | 31120 ft | 394 kts | 44° |
| 2026-04-21 12:00 | 62.21920 | 34.59222 | 31120 ft | 395 kts | 44° |
| 2026-04-21 12:00 | 62.25761 | 34.67656 | 31120 ft | 395 kts | 44° |
| 2026-04-21 12:01 | 62.29566 | 34.76047 | 31120 ft | 395 kts | 44° |
| 2026-04-21 12:01 | 62.33394 | 34.84518 | 31121 ft | 395 kts | 44° |
| 2026-04-21 12:02 | 62.39129 | 34.97275 | 31121 ft | 395 kts | 44° |
| 2026-04-21 12:03 | 62.42948 | 35.05810 | 31121 ft | 395 kts | 44° |
| 2026-04-21 12:03 | 62.46752 | 35.14344 | 31131 ft | 394 kts | 44° |
| 2026-04-21 12:04 | 62.50542 | 35.22883 | 31135 ft | 393 kts | 44° |
| 2026-04-21 12:04 | 62.54323 | 35.31434 | 31135 ft | 392 kts | 44° |
| 2026-04-21 12:05 | 62.58091 | 35.39989 | 31134 ft | 392 kts | 44° |
| 2026-04-21 12:05 | 62.61857 | 35.48572 | 31134 ft | 392 kts | 45° |
| 2026-04-21 12:06 | 62.65587 | 35.57106 | 31133 ft | 392 kts | 45° |
| 2026-04-21 12:06 | 62.69333 | 35.65711 | 31133 ft | 391 kts | 45° |
| 2026-04-21 12:07 | 62.73070 | 35.74331 | 31132 ft | 391 kts | 45° |
| 2026-04-21 12:07 | 62.76804 | 35.82977 | 31131 ft | 391 kts | 45° |
| 2026-04-21 12:08 | 62.80530 | 35.91638 | 31131 ft | 391 kts | 45° |
| 2026-04-21 12:08 | 62.84252 | 36.00324 | 31130 ft | 391 kts | 45° |
| 2026-04-21 12:09 | 62.87963 | 36.09020 | 31130 ft | 391 kts | 45° |
| 2026-04-21 12:09 | 62.91648 | 36.17688 | 31130 ft | 391 kts | 45° |
| 2026-04-21 12:10 | 62.95348 | 36.26426 | 31130 ft | 391 kts | 45° |
| 2026-04-21 12:10 | 62.99039 | 36.35179 | 31130 ft | 391 kts | 45° |
| 2026-04-21 12:11 | 63.02730 | 36.43967 | 31130 ft | 391 kts | 45° |
| 2026-04-21 12:11 | 63.06411 | 36.52765 | 31130 ft | 391 kts | 45° |
| 2026-04-21 12:12 | 63.10089 | 36.61591 | 31131 ft | 390 kts | 45° |
| 2026-04-21 12:12 | 63.13648 | 36.70168 | 31131 ft | 390 kts | 45° |
| 2026-04-21 12:13 | 63.17317 | 36.79042 | 31131 ft | 390 kts | 45° |
| 2026-04-21 12:13 | 63.20978 | 36.87933 | 31132 ft | 390 kts | 45° |
| 2026-04-21 12:14 | 63.24626 | 36.96831 | 31132 ft | 390 kts | 45° |
| 2026-04-21 12:14 | 63.28248 | 37.05699 | 31132 ft | 390 kts | 46° |
| 2026-04-21 12:15 | 63.31884 | 37.14637 | 31133 ft | 390 kts | 46° |
| 2026-04-21 12:15 | 63.35520 | 37.23611 | 31133 ft | 390 kts | 46° |
| 2026-04-21 12:16 | 63.39145 | 37.32598 | 31133 ft | 390 kts | 46° |
| 2026-04-21 12:16 | 63.42765 | 37.41607 | 31134 ft | 389 kts | 46° |
| 2026-04-21 12:17 | 63.46378 | 37.50634 | 31133 ft | 389 kts | 46° |
| 2026-04-21 12:17 | 63.49995 | 37.59711 | 31127 ft | 391 kts | 46° |
| 2026-04-21 12:18 | 63.53607 | 37.68811 | 31129 ft | 391 kts | 46° |
| 2026-04-21 12:18 | 63.57209 | 37.77924 | 31130 ft | 390 kts | 46° |
| 2026-04-21 12:19 | 63.60808 | 37.87067 | 31131 ft | 390 kts | 46° |
| 2026-04-21 12:19 | 63.64399 | 37.96228 | 31133 ft | 390 kts | 46° |
| 2026-04-21 12:20 | 63.67983 | 38.05410 | 31132 ft | 391 kts | 46° |
| 2026-04-21 12:20 | 63.71566 | 38.14627 | 31133 ft | 391 kts | 46° |
| 2026-04-21 12:21 | 63.75099 | 38.23753 | 31133 ft | 385 kts | 46° |
| 2026-04-21 12:21 | 63.78641 | 38.32939 | 31134 ft | 385 kts | 46° |
| 2026-04-21 12:21 | 63.80376 | 38.37453 | 30946 ft | 384 kts | 46° |
| 2026-04-21 12:22 | 63.82111 | 38.41976 | 30634 ft | 376 kts | 46° |
| 2026-04-21 12:22 | 63.83819 | 38.46438 | 30134 ft | 373 kts | 46° |
| 2026-04-21 12:22 | 63.85511 | 38.50849 | 29633 ft | 369 kts | 45° |
| 2026-04-21 12:22 | 63.87217 | 38.55170 | 29126 ft | 365 kts | 45° |
| 2026-04-21 12:23 | 63.88881 | 38.59473 | 28664 ft | 360 kts | 46° |
| 2026-04-21 12:23 | 63.90503 | 38.63730 | 28147 ft | 349 kts | 46° |
| 2026-04-21 12:23 | 63.92071 | 38.67878 | 27525 ft | 347 kts | 46° |
| 2026-04-21 12:23 | 63.93644 | 38.72063 | 26899 ft | 349 kts | 46° |
| 2026-04-21 12:24 | 63.95225 | 38.76283 | 26279 ft | 351 kts | 46° |
| 2026-04-21 12:24 | 63.96807 | 38.80516 | 25705 ft | 351 kts | 46° |
| 2026-04-21 12:24 | 63.98384 | 38.84744 | 25156 ft | 349 kts | 46° |
| 2026-04-21 12:24 | 63.99944 | 38.88929 | 24686 ft | 344 kts | 46° |
| 2026-04-21 12:25 | 64.01485 | 38.93069 | 24217 ft | 340 kts | 46° |
| 2026-04-21 12:25 | 64.02991 | 38.97117 | 23764 ft | 337 kts | 46° |
| 2026-04-21 12:25 | 64.04498 | 39.01163 | 23315 ft | 333 kts | 46° |
| 2026-04-21 12:25 | 64.05900 | 39.05359 | 22867 ft | 332 kts | 52° |
| 2026-04-21 12:26 | 64.07081 | 39.09902 | 22434 ft | 332 kts | 57° |
| 2026-04-21 12:26 | 64.08122 | 39.14598 | 21990 ft | 330 kts | 59° |
| 2026-04-21 12:26 | 64.09097 | 39.19323 | 21552 ft | 328 kts | 60° |
| 2026-04-21 12:26 | 64.10062 | 39.24039 | 21115 ft | 325 kts | 60° |
| 2026-04-21 12:27 | 64.11015 | 39.28705 | 20680 ft | 323 kts | 60° |
| 2026-04-21 12:27 | 64.11645 | 39.31784 | 20392 ft | 322 kts | 60° |
| 2026-04-21 12:27 | 64.12906 | 39.37846 | 19820 ft | 318 kts | 58° |
| 2026-04-21 12:27 | 64.13901 | 39.42346 | 19387 ft | 316 kts | 59° |
| 2026-04-21 12:28 | 64.14866 | 39.46851 | 18955 ft | 314 kts | 59° |
| 2026-04-21 12:28 | 64.15806 | 39.51371 | 18522 ft | 312 kts | 60° |
| 2026-04-21 12:28 | 64.16726 | 39.55870 | 18089 ft | 311 kts | 60° |
| 2026-04-21 12:28 | 64.17623 | 39.60295 | 17662 ft | 309 kts | 60° |
| 2026-04-21 12:29 | 64.18526 | 39.64769 | 17130 ft | 310 kts | 61° |
| 2026-04-21 12:29 | 64.19437 | 39.69305 | 16438 ft | 317 kts | 61° |
| 2026-04-21 12:29 | 64.20359 | 39.73906 | 16085 ft | 316 kts | 61° |
| 2026-04-21 12:29 | 64.21272 | 39.78471 | 15826 ft | 315 kts | 61° |
| 2026-04-21 12:30 | 64.22183 | 39.83033 | 15410 ft | 314 kts | 61° |
| 2026-04-21 12:30 | 64.23090 | 39.87580 | 14962 ft | 312 kts | 61° |
| 2026-04-21 12:30 | 64.23994 | 39.92111 | 14510 ft | 311 kts | 61° |
| 2026-04-21 12:30 | 64.24892 | 39.96607 | 14057 ft | 309 kts | 61° |
| 2026-04-21 12:31 | 64.25788 | 40.01099 | 13602 ft | 308 kts | 62° |
| 2026-04-21 12:31 | 64.26376 | 40.04059 | 13301 ft | 307 kts | 62° |
| 2026-04-21 12:31 | 64.27263 | 40.08517 | 12845 ft | 306 kts | 62° |
| 2026-04-21 12:31 | 64.28142 | 40.12962 | 12387 ft | 304 kts | 62° |
| 2026-04-21 12:32 | 64.29015 | 40.17389 | 11928 ft | 303 kts | 62° |
| 2026-04-21 12:32 | 64.29883 | 40.21815 | 11466 ft | 302 kts | 62° |
| 2026-04-21 12:32 | 64.30744 | 40.26213 | 11004 ft | 301 kts | 62° |
| 2026-04-21 12:32 | 64.31602 | 40.30604 | 10540 ft | 300 kts | 62° |
| 2026-04-21 12:33 | 64.32453 | 40.34971 | 10178 ft | 295 kts | 62° |
| 2026-04-21 12:33 | 64.33270 | 40.39173 | 10124 ft | 280 kts | 62° |
| 2026-04-21 12:33 | 64.34046 | 40.43166 | 10061 ft | 266 kts | 62° |
| 2026-04-21 12:33 | 64.34808 | 40.46966 | 9839 ft | 258 kts | 60° |
| 2026-04-21 12:34 | 64.35601 | 40.50668 | 9478 ft | 257 kts | 60° |
| 2026-04-21 12:34 | 64.36375 | 40.54397 | 9114 ft | 257 kts | 61° |
| 2026-04-21 12:34 | 64.37123 | 40.58130 | 8751 ft | 256 kts | 61° |
| 2026-04-21 12:34 | 64.37859 | 40.61877 | 8387 ft | 256 kts | 62° |
| 2026-04-21 12:35 | 64.38254 | 40.63908 | 8190 ft | 255 kts | 62° |
| 2026-04-21 12:35 | 64.38743 | 40.66439 | 7945 ft | 255 kts | 62° |
| 2026-04-21 12:35 | 64.39462 | 40.70179 | 7584 ft | 254 kts | 62° |
| 2026-04-21 12:35 | 64.40177 | 40.73921 | 7225 ft | 254 kts | 62° |
| 2026-04-21 12:36 | 64.40887 | 40.77644 | 6868 ft | 253 kts | 62° |
| 2026-04-21 12:36 | 64.41604 | 40.81366 | 6571 ft | 255 kts | 62° |
| 2026-04-21 12:36 | 64.42335 | 40.85144 | 6140 ft | 259 kts | 63° |
| 2026-04-21 12:36 | 64.43050 | 40.88955 | 5777 ft | 257 kts | 63° |
| 2026-04-21 12:37 | 64.43756 | 40.92738 | 5417 ft | 255 kts | 63° |
| 2026-04-21 12:37 | 64.44460 | 40.96495 | 5058 ft | 254 kts | 63° |
| 2026-04-21 12:37 | 64.45164 | 41.00231 | 4701 ft | 252 kts | 63° |
| 2026-04-21 12:37 | 64.45864 | 41.03945 | 4347 ft | 251 kts | 63° |
| 2026-04-21 12:38 | 64.46559 | 41.07616 | 4103 ft | 244 kts | 63° |
| 2026-04-21 12:38 | 64.47247 | 41.11041 | 3976 ft | 225 kts | 55° |
| 2026-04-21 12:38 | 64.48292 | 41.13439 | 3832 ft | 203 kts | 27° |
| 2026-04-21 12:38 | 64.49542 | 41.14597 | 3718 ft | 185 kts | 11° |
| 2026-04-21 12:39 | 64.50780 | 41.15079 | 3493 ft | 180 kts | 5° |
| 2026-04-21 12:39 | 64.52022 | 41.15367 | 3008 ft | 183 kts | 3° |
| 2026-04-21 12:39 | 64.53309 | 41.15673 | 2581 ft | 180 kts | 4° |
| 2026-04-21 12:39 | 64.54470 | 41.15980 | 2425 ft | 160 kts | 4° |
| 2026-04-21 12:40 | 64.55528 | 41.16262 | 2349 ft | 151 kts | 4° |
| 2026-04-21 12:40 | 64.56575 | 41.16541 | 2360 ft | 153 kts | 3° |
| 2026-04-21 12:40 | 64.57615 | 41.16281 | 2299 ft | 153 kts | 328° |
| 2026-04-21 12:40 | 64.58139 | 41.14219 | 2273 ft | 155 kts | 281° |
| 2026-04-21 12:41 | 64.58200 | 41.11745 | 2270 ft | 147 kts | 276° |
| 2026-04-21 12:41 | 64.58235 | 41.09415 | 2197 ft | 143 kts | 277° |
| 2026-04-21 12:41 | 64.58299 | 41.07107 | 2155 ft | 144 kts | 278° |
| 2026-04-21 12:41 | 64.58390 | 41.04783 | 2122 ft | 145 kts | 279° |
| 2026-04-21 12:42 | 64.58502 | 41.02416 | 1950 ft | 149 kts | 279° |
| 2026-04-21 12:42 | 64.58618 | 41.00005 | 1837 ft | 153 kts | 281° |
| 2026-04-21 12:42 | 64.58762 | 40.97616 | 1600 ft | 144 kts | 281° |
| 2026-04-21 12:42 | 64.58898 | 40.95328 | 1451 ft | 141 kts | 278° |
| 2026-04-21 12:43 | 64.58974 | 40.93096 | 1269 ft | 136 kts | 278° |
| 2026-04-21 12:43 | 64.59074 | 40.90934 | 1159 ft | 133 kts | 279° |
| 2026-04-21 12:43 | 64.59165 | 40.88794 | 1057 ft | 134 kts | 277° |
| 2026-04-21 12:43 | 64.59240 | 40.86615 | 881 ft | 135 kts | 277° |
| 2026-04-21 12:44 | 64.59335 | 40.84468 | 737 ft | 133 kts | 278° |
| 2026-04-21 12:44 | 64.59446 | 40.82339 | 657 ft | 132 kts | 281° |
| 2026-04-21 12:44 | 64.59580 | 40.80230 | 515 ft | 131 kts | 278° |
| 2026-04-21 12:44 | 64.59669 | 40.78142 | 372 ft | 129 kts | 279° |
| 2026-04-21 12:45 | 64.59777 | 40.76112 | 234 ft | 128 kts | 279° |
| 2026-04-21 12:45 | 64.59877 | 40.74060 | 85 ft | 126 kts | 279° |
| 2026-04-21 12:45 | 64.59968 | 40.72221 | 71 ft | 94 kts | 278° |
| 2026-04-21 12:45 | 64.60020 | 40.71189 | 71 ft | 43 kts | 276° |
| 2026-04-21 12:46 | 64.60047 | 40.70649 | 71 ft | 17 kts | 276° |
| 2026-04-21 12:46 | 64.60058 | 40.70386 | 71 ft | 16 kts | 276° |
| 2026-04-21 12:46 | 64.60051 | 40.70232 | 71 ft | 8 kts | 225° |
| 2026-04-21 12:46 | 64.59995 | 40.70195 | 71 ft | 11 kts | 187° |
| 2026-04-21 12:47 | 64.59914 | 40.70173 | 71 ft | 12 kts | 186° |
| 2026-04-21 12:47 | 64.59858 | 40.70201 | 71 ft | 8 kts | 119° |
| 2026-04-21 12:47 | 64.59848 | 40.70321 | 71 ft | 8 kts | 97° |
| 2026-04-21 12:47 | 64.59836 | 40.70581 | 71 ft | 21 kts | 96° |
| 2026-04-21 12:48 | 64.59821 | 40.70876 | 71 ft | 18 kts | 97° |
| 2026-04-21 12:48 | 64.59808 | 40.71151 | 71 ft | 17 kts | 96° |
| 2026-04-21 12:48 | 64.59790 | 40.71272 | 71 ft | 2 kts | 166° |
| 2026-04-21 12:48 | 64.59778 | 40.71276 | 71 ft | 3 kts | 179° |
| 2026-04-21 12:49 | 64.59730 | 40.71263 | 71 ft | 9 kts | 186° |
| 2026-04-21 12:49 | 64.59694 | 40.71271 | 71 ft | 4 kts | 137° |
| 2026-04-21 12:49 | 64.59670 | 40.71309 | 71 ft | 4 kts | 175° |
| 2026-04-21 12:49 | 64.59645 | 40.71305 | 71 ft | 0 kts | 188° |
| 2026-04-21 12:50 | 64.59640 | 40.71304 | 71 ft | 0 kts | 187° |